Погода Бом Деспаршона 2 недели

Минас-Жерайс, Бразилия

20 мая-02 июня
  • 20мая
    Сегодня
    +18°
    +29°
    Облачно с прояснениями
    ВремяПогодаТемператураВлажностьДавлениеВетер, м/сВероятность осадков
    00:00Ясно и безоблачно+18°C71 %700 мм1.8 м/с5 %
    03:00Практически безоблачно+18°C67 %700 мм2.7 м/с5 %
    06:00Облачно с прояснениями+17°C78 %700 мм1.9 м/с5 %
    09:00Облачно с прояснениями+22°C63 %703 мм1.6 м/с5 %
    12:00Небольшая облачность+27°C46 %702 мм1.0 м/с5 %
    15:00Облачно с прояснениями+29°C42 %701 мм0.2 м/с5 %
    18:00Облачно с прояснениями+25°C57 %701 мм1.3 м/с5 %
    21:00Облачно с прояснениями+22°C64 %701 мм1.6 м/с5 %
  • 21мая
    Вторник
    +17°
    +30°
    Ясно и безоблачно
    ВремяПогодаТемператураВлажностьДавлениеВетер, м/сВероятность осадков
    00:00Ясно и безоблачно+20°C67 %701 мм2.3 м/с5 %
    03:00Ясно и безоблачно+19°C71 %700 мм3.0 м/с5 %
    06:00Ясно и безоблачно+18°C73 %701 мм3.6 м/с5 %
    09:00Ясно и безоблачно+23°C59 %703 мм3.5 м/с5 %
    12:00Ясно и безоблачно+28°C43 %703 мм3.5 м/с5 %
    15:00Ясно и безоблачно+30°C39 %702 мм3.0 м/с5 %
    18:00Ясно и безоблачно+25°C49 %702 мм2.8 м/с5 %
    21:00Ясно и безоблачно+23°C56 %703 мм3.3 м/с5 %
  • 22мая
    Среда
    +16°
    +29°
    Ясно и безоблачно
    ВремяПогодаТемператураВлажностьДавлениеВетер, м/сВероятность осадков
    00:00Ясно и безоблачно+20°C68 %703 мм3.4 м/с5 %
    03:00Ясно и безоблачно+18°C79 %702 мм3.3 м/с5 %
    06:00Ясно и безоблачно+17°C84 %702 мм3.6 м/с5 %
    09:00Ясно и безоблачно+22°C65 %704 мм3.5 м/с5 %
    12:00Ясно и безоблачно+26°C42 %703 мм2.7 м/с5 %
    15:00Ясно и безоблачно+29°C37 %702 мм2.2 м/с5 %
    18:00Ясно и безоблачно+23°C56 %701 мм2.3 м/с5 %
    21:00Ясно и безоблачно+23°C56 %702 мм3.5 м/с5 %
  • 23мая
    Четверг
    +17°
    +29°
    Ясно и безоблачно
    ВремяПогодаТемператураВлажностьДавлениеВетер, м/сВероятность осадков
    00:00Ясно и безоблачно+21°C66 %702 мм3.5 м/с5 %
    03:00Ясно и безоблачно+18°C73 %701 мм2.7 м/с5 %
    06:00Ясно и безоблачно+17°C81 %701 мм2.4 м/с5 %
    09:00Ясно и безоблачно+22°C68 %703 мм2.2 м/с5 %
    12:00Ясно и безоблачно+26°C51 %702 мм2.2 м/с5 %
    15:00Ясно и безоблачно+29°C46 %700 мм2.1 м/с5 %
    18:00Ясно и безоблачно+24°C66 %699 мм2.4 м/с5 %
    21:00Ясно и безоблачно+22°C64 %700 мм2.4 м/с5 %
  • 24мая
    Пятница
    +18°
    +29°
    Облачно с прояснениями
    ВремяПогодаТемператураВлажностьДавлениеВетер, м/сВероятность осадков
    00:00Ясно и безоблачно+21°C59 %700 мм2.7 м/с5 %
    03:00Ясно и безоблачно+19°C69 %699 мм2.9 м/с5 %
    06:00Ясно и безоблачно+17°C78 %699 мм2.3 м/с5 %
    09:00Ясно и безоблачно+21°C62 %701 мм2.3 м/с5 %
    12:00Небольшая облачность+26°C45 %700 мм3.8 м/с5 %
    15:00Облачно с прояснениями+29°C41 %699 мм3.2 м/с5 %
    18:00Облачно с прояснениями+25°C54 %698 мм2.4 м/с5 %
    21:00Практически безоблачно+22°C67 %699 мм2.3 м/с5 %
Мы используем cookies
Соглашаюсь